sensor_id;sensor_type;location;lat;lon;timestamp;pressure;altitude;pressure_sealevel;temperature;humidity
73692;BME280;61996;49.910;35.562;2023-01-29T00:01:52;99299.09;;;19.99;35.10
73692;BME280;61996;49.910;35.562;2023-01-29T00:04:55;99302.09;;;19.96;35.20
73692;BME280;61996;49.910;35.562;2023-01-29T00:08:18;99301.53;;;19.93;35.37
73692;BME280;61996;49.910;35.562;2023-01-29T00:11:21;99293.47;;;19.85;35.27
73692;BME280;61996;49.910;35.562;2023-01-29T00:14:26;99286.63;;;19.82;35.49
73692;BME280;61996;49.910;35.562;2023-01-29T00:17:29;99290.91;;;19.75;35.44
73692;BME280;61996;49.910;35.562;2023-01-29T00:20:31;99283.63;;;19.67;35.62
73692;BME280;61996;49.910;35.562;2023-01-29T00:23:36;99279.75;;;19.62;35.79
73692;BME280;61996;49.910;35.562;2023-01-29T00:26:39;99277.53;;;19.57;35.78
73692;BME280;61996;49.910;35.562;2023-01-29T00:29:42;99277.13;;;19.52;35.81
73692;BME280;61996;49.910;35.562;2023-01-29T00:33:02;99269.03;;;19.44;35.81
73692;BME280;61996;49.910;35.562;2023-01-29T00:36:06;99271.47;;;19.37;36.12
73692;BME280;61996;49.910;35.562;2023-01-29T00:39:11;99262.63;;;19.37;36.13
73692;BME280;61996;49.910;35.562;2023-01-29T00:42:13;99263.91;;;19.33;36.17
73692;BME280;61996;49.910;35.562;2023-01-29T00:45:34;99268.41;;;19.32;36.20
73692;BME280;61996;49.910;35.562;2023-01-29T00:48:39;99272.91;;;19.32;36.15
73692;BME280;61996;49.910;35.562;2023-01-29T00:51:41;99280.38;;;19.28;36.14
73692;BME280;61996;49.910;35.562;2023-01-29T00:54:46;99280.66;;;19.25;36.14
73692;BME280;61996;49.910;35.562;2023-01-29T00:57:48;99272.31;;;19.20;36.10
73692;BME280;61996;49.910;35.562;2023-01-29T01:00:51;99272.44;;;19.18;36.18
73692;BME280;61996;49.910;35.562;2023-01-29T01:03:54;99267.72;;;19.12;36.27
73692;BME280;61996;49.910;35.562;2023-01-29T01:06:56;99270.66;;;19.09;36.16
73692;BME280;61996;49.910;35.562;2023-01-29T01:10:00;99257.25;;;19.01;36.21
73692;BME280;61996;49.910;35.562;2023-01-29T01:13:20;99266.50;;;18.97;36.33
73692;BME280;61996;49.910;35.562;2023-01-29T01:16:23;99244.94;;;18.90;36.30
73692;BME280;61996;49.910;35.562;2023-01-29T01:19:27;99255.78;;;18.89;36.45
73692;BME280;61996;49.910;35.562;2023-01-29T01:22:30;99254.25;;;18.86;36.53
73692;BME280;61996;49.910;35.562;2023-01-29T01:25:34;99254.16;;;18.78;36.33
73692;BME280;61996;49.910;35.562;2023-01-29T01:28:38;99260.31;;;18.79;36.39
73692;BME280;61996;49.910;35.562;2023-01-29T01:31:41;99266.06;;;18.74;36.40
73692;BME280;61996;49.910;35.562;2023-01-29T01:34:44;99260.22;;;18.71;36.48
73692;BME280;61996;49.910;35.562;2023-01-29T01:37:47;99255.16;;;18.68;36.57
73692;BME280;61996;49.910;35.562;2023-01-29T01:40:51;99261.59;;;18.65;36.50
73692;BME280;61996;49.910;35.562;2023-01-29T01:43:54;99260.22;;;18.61;36.72
73692;BME280;61996;49.910;35.562;2023-01-29T01:46:59;99255.31;;;18.56;36.73
73692;BME280;61996;49.910;35.562;2023-01-29T01:50:04;99259.94;;;18.54;36.81
73692;BME280;61996;49.910;35.562;2023-01-29T01:53:09;99254.22;;;18.49;36.85
73692;BME280;61996;49.910;35.562;2023-01-29T01:56:15;99250.59;;;18.50;36.96
73692;BME280;61996;49.910;35.562;2023-01-29T01:59:19;99253.84;;;18.44;36.89
73692;BME280;61996;49.910;35.562;2023-01-29T02:02:23;99260.00;;;18.45;36.74
73692;BME280;61996;49.910;35.562;2023-01-29T02:05:44;99254.81;;;18.43;36.79
73692;BME280;61996;49.910;35.562;2023-01-29T02:09:07;99247.09;;;18.40;36.91
73692;BME280;61996;49.910;35.562;2023-01-29T02:12:31;99247.25;;;18.39;36.73
73692;BME280;61996;49.910;35.562;2023-01-29T02:15:34;99249.50;;;18.33;36.89
73692;BME280;61996;49.910;35.562;2023-01-29T02:18:37;99246.84;;;18.33;36.88
73692;BME280;61996;49.910;35.562;2023-01-29T02:25:11;99257.81;;;18.30;36.77
73692;BME280;61996;49.910;35.562;2023-01-29T02:28:24;99260.47;;;18.30;36.91
73692;BME280;61996;49.910;35.562;2023-01-29T02:31:30;99254.03;;;18.23;36.91
73692;BME280;61996;49.910;35.562;2023-01-29T02:34:38;99258.22;;;18.26;36.95
73692;BME280;61996;49.910;35.562;2023-01-29T02:38:02;99257.53;;;18.24;36.89
73692;BME280;61996;49.910;35.562;2023-01-29T02:41:07;99251.66;;;18.20;36.78
73692;BME280;61996;49.910;35.562;2023-01-29T02:44:18;99249.97;;;18.19;37.02
73692;BME280;61996;49.910;35.562;2023-01-29T02:47:25;99244.13;;;18.16;36.87
73692;BME280;61996;49.910;35.562;2023-01-29T02:50:33;99246.06;;;18.14;36.84
73692;BME280;61996;49.910;35.562;2023-01-29T02:53:40;99242.72;;;18.12;36.91
73692;BME280;61996;49.910;35.562;2023-01-29T02:56:45;99240.19;;;18.10;36.91
73692;BME280;61996;49.910;35.562;2023-01-29T02:59:53;99238.38;;;18.11;36.85
73692;BME280;61996;49.910;35.562;2023-01-29T03:02:58;99244.84;;;18.08;36.77
73692;BME280;61996;49.910;35.562;2023-01-29T03:06:03;99241.31;;;18.07;36.94
73692;BME280;61996;49.910;35.562;2023-01-29T03:09:23;99242.59;;;18.03;36.90
73692;BME280;61996;49.910;35.562;2023-01-29T03:12:28;99238.38;;;18.01;36.94
73692;BME280;61996;49.910;35.562;2023-01-29T03:15:39;99235.84;;;17.99;36.98
73692;BME280;61996;49.910;35.562;2023-01-29T03:18:48;99236.00;;;17.98;36.83
73692;BME280;61996;49.910;35.562;2023-01-29T03:21:54;99237.16;;;17.95;36.92
73692;BME280;61996;49.910;35.562;2023-01-29T03:25:00;99247.22;;;17.92;36.84
73692;BME280;61996;49.910;35.562;2023-01-29T03:28:21;99241.06;;;17.91;36.96
73692;BME280;61996;49.910;35.562;2023-01-29T03:31:44;99241.06;;;17.91;36.82
73692;BME280;61996;49.910;35.562;2023-01-29T03:35:07;99243.56;;;18.02;36.72
73692;BME280;61996;49.910;35.562;2023-01-29T03:38:11;99233.47;;;18.16;36.39
73692;BME280;61996;49.910;35.562;2023-01-29T03:41:21;99239.88;;;18.23;36.21
73692;BME280;61996;49.910;35.562;2023-01-29T03:44:27;99243.06;;;18.36;36.08
73692;BME280;61996;49.910;35.562;2023-01-29T03:47:35;99243.19;;;18.44;35.81
73692;BME280;61996;49.910;35.562;2023-01-29T03:50:45;99243.81;;;18.56;35.72
73692;BME280;61996;49.910;35.562;2023-01-29T03:53:51;99242.00;;;18.66;35.63
73692;BME280;61996;49.910;35.562;2023-01-29T03:56:57;99237.75;;;18.73;35.46
73692;BME280;61996;49.910;35.562;2023-01-29T04:00:02;99242.09;;;18.74;35.39
73692;BME280;61996;49.910;35.562;2023-01-29T04:03:11;99247.25;;;18.85;35.42
73692;BME280;61996;49.910;35.562;2023-01-29T04:06:19;99242.44;;;18.89;35.32
73692;BME280;61996;49.910;35.562;2023-01-29T04:09:24;99239.78;;;18.89;35.26
73692;BME280;61996;49.910;35.562;2023-01-29T04:12:30;99244.22;;;18.98;35.02
73692;BME280;61996;49.910;35.562;2023-01-29T04:15:39;99242.69;;;18.96;35.22
73692;BME280;61996;49.910;35.562;2023-01-29T04:18:46;99244.91;;;19.00;35.15
73692;BME280;61996;49.910;35.562;2023-01-29T04:21:49;99239.44;;;19.02;35.07
73692;BME280;61996;49.910;35.562;2023-01-29T04:24:54;99243.25;;;18.99;35.08
73692;BME280;61996;49.910;35.562;2023-01-29T04:28:04;99241.50;;;19.08;35.07
73692;BME280;61996;49.910;35.562;2023-01-29T04:31:09;99248.09;;;19.04;34.84
73692;BME280;61996;49.910;35.562;2023-01-29T04:34:18;99254.69;;;19.09;34.86
73692;BME280;61996;49.910;35.562;2023-01-29T04:37:28;99242.03;;;19.11;34.93
73692;BME280;61996;49.910;35.562;2023-01-29T04:40:35;99255.34;;;19.11;35.00
73692;BME280;61996;49.910;35.562;2023-01-29T04:43:42;99262.06;;;19.15;34.98
73692;BME280;61996;49.910;35.562;2023-01-29T04:46:48;99258.41;;;19.16;34.94
73692;BME280;61996;49.910;35.562;2023-01-29T04:49:58;99250.41;;;19.16;34.91
73692;BME280;61996;49.910;35.562;2023-01-29T04:53:03;99251.50;;;19.24;34.81
73692;BME280;61996;49.910;35.562;2023-01-29T04:56:10;99253.31;;;19.23;34.91
73692;BME280;61996;49.910;35.562;2023-01-29T04:59:20;99255.16;;;19.23;34.91
73692;BME280;61996;49.910;35.562;2023-01-29T05:02:26;99248.84;;;19.24;34.84
73692;BME280;61996;49.910;35.562;2023-01-29T05:05:31;99258.38;;;19.26;34.88
73692;BME280;61996;49.910;35.562;2023-01-29T05:08:35;99256.38;;;19.28;34.77
73692;BME280;61996;49.910;35.562;2023-01-29T05:11:38;99255.25;;;19.31;34.76
73692;BME280;61996;49.910;35.562;2023-01-29T05:14:42;99252.88;;;19.28;34.80
73692;BME280;61996;49.910;35.562;2023-01-29T05:17:46;99259.97;;;19.37;34.61
73692;BME280;61996;49.910;35.562;2023-01-29T05:20:50;99262.63;;;19.37;34.61
73692;BME280;61996;49.910;35.562;2023-01-29T05:27:19;99266.69;;;19.41;34.63
73692;BME280;61996;49.910;35.562;2023-01-29T05:30:40;99267.97;;;19.37;34.77
73692;BME280;61996;49.910;35.562;2023-01-29T05:33:44;99262.31;;;19.40;34.68
73692;BME280;61996;49.910;35.562;2023-01-29T05:36:48;99258.53;;;19.42;34.54
73692;BME280;61996;49.910;35.562;2023-01-29T05:39:51;99265.84;;;19.40;34.70
73692;BME280;61996;49.910;35.562;2023-01-29T05:42:54;99260.81;;;19.37;34.75
73692;BME280;61996;49.910;35.562;2023-01-29T05:45:57;99260.38;;;19.42;34.68
73692;BME280;61996;49.910;35.562;2023-01-29T05:49:00;99264.31;;;19.38;34.87
73692;BME280;61996;49.910;35.562;2023-01-29T05:52:04;99269.88;;;19.27;35.06
73692;BME280;61996;49.910;35.562;2023-01-29T05:55:08;99265.81;;;19.23;35.08
73692;BME280;61996;49.910;35.562;2023-01-29T05:58:11;99266.25;;;19.18;35.10
73692;BME280;61996;49.910;35.562;2023-01-29T06:01:15;99266.56;;;19.15;35.19
73692;BME280;61996;49.910;35.562;2023-01-29T06:04:18;99259.84;;;19.11;35.28
73692;BME280;61996;49.910;35.562;2023-01-29T06:07:22;99269.66;;;19.10;35.15
73692;BME280;61996;49.910;35.562;2023-01-29T06:10:25;99263.94;;;19.05;35.28
73692;BME280;61996;49.910;35.562;2023-01-29T06:13:28;99256.94;;;19.04;35.29
73692;BME280;61996;49.910;35.562;2023-01-29T06:16:31;99257.69;;;18.97;35.41
73692;BME280;61996;49.910;35.562;2023-01-29T06:19:34;99253.78;;;18.91;35.66
73692;BME280;61996;49.910;35.562;2023-01-29T06:22:38;99259.56;;;18.86;35.62
73692;BME280;61996;49.910;35.562;2023-01-29T06:25:41;99250.03;;;18.84;35.63
73692;BME280;61996;49.910;35.562;2023-01-29T06:28:46;99249.91;;;18.85;35.71
73692;BME280;61996;49.910;35.562;2023-01-29T06:31:49;99248.00;;;18.78;35.66
73692;BME280;61996;49.910;35.562;2023-01-29T06:34:52;99248.25;;;18.75;35.74
73692;BME280;61996;49.910;35.562;2023-01-29T06:37:57;99252.59;;;18.76;35.69
73692;BME280;61996;49.910;35.562;2023-01-29T06:41:06;99251.91;;;18.74;35.63
73692;BME280;61996;49.910;35.562;2023-01-29T06:44:09;99254.34;;;18.67;35.70
73692;BME280;61996;49.910;35.562;2023-01-29T06:47:12;99248.16;;;18.67;35.80
73692;BME280;61996;49.910;35.562;2023-01-29T06:50:15;99251.94;;;18.64;35.87
73692;BME280;61996;49.910;35.562;2023-01-29T06:53:20;99253.38;;;18.58;35.85
73692;BME280;61996;49.910;35.562;2023-01-29T06:56:23;99252.28;;;18.51;35.89
73692;BME280;61996;49.910;35.562;2023-01-29T06:59:26;99244.56;;;18.48;35.95
73692;BME280;61996;49.910;35.562;2023-01-29T07:02:28;99247.78;;;18.42;35.94
73692;BME280;61996;49.910;35.562;2023-01-29T07:05:31;99242.09;;;18.37;36.19
73692;BME280;61996;49.910;35.562;2023-01-29T07:08:36;99246.84;;;18.33;36.16
73692;BME280;61996;49.910;35.562;2023-01-29T07:11:39;99245.47;;;18.29;36.16
73692;BME280;61996;49.910;35.562;2023-01-29T07:14:42;99245.75;;;18.26;36.38
73692;BME280;61996;49.910;35.562;2023-01-29T07:17:54;99236.50;;;18.21;36.39
73692;BME280;61996;49.910;35.562;2023-01-29T07:20:57;99233.31;;;18.17;36.35
73692;BME280;61996;49.910;35.562;2023-01-29T07:24:01;99229.97;;;18.15;36.36
73692;BME280;61996;49.910;35.562;2023-01-29T07:27:04;99225.47;;;18.16;36.47
73692;BME280;61996;49.910;35.562;2023-01-29T07:30:07;99217.50;;;18.16;36.34
73692;BME280;61996;49.910;35.562;2023-01-29T07:33:10;99221.97;;;18.15;36.23
73692;BME280;61996;49.910;35.562;2023-01-29T07:36:13;99217.91;;;18.11;36.36
73692;BME280;61996;49.910;35.562;2023-01-29T07:39:17;99220.88;;;18.08;36.40
73692;BME280;61996;49.910;35.562;2023-01-29T07:42:20;99224.66;;;18.05;36.38
73692;BME280;61996;49.910;35.562;2023-01-29T07:45:23;99228.28;;;18.04;36.42
73692;BME280;61996;49.910;35.562;2023-01-29T07:48:26;99243.84;;;17.99;36.50
73692;BME280;61996;49.910;35.562;2023-01-29T07:51:29;99253.66;;;17.99;36.36
73692;BME280;61996;49.910;35.562;2023-01-29T07:54:33;99243.31;;;17.96;36.37
73692;BME280;61996;49.910;35.562;2023-01-29T07:57:36;99240.78;;;17.94;36.41
73692;BME280;61996;49.910;35.562;2023-01-29T08:00:39;99238.66;;;17.98;36.34
73692;BME280;61996;49.910;35.562;2023-01-29T08:03:42;99236.72;;;17.90;36.52
73692;BME280;61996;49.910;35.562;2023-01-29T08:06:45;99237.72;;;17.89;36.44
73692;BME280;61996;49.910;35.562;2023-01-29T08:09:49;99240.22;;;17.91;36.50
73692;BME280;61996;49.910;35.562;2023-01-29T08:12:53;99239.53;;;17.89;36.34
73692;BME280;61996;49.910;35.562;2023-01-29T08:15:57;99237.03;;;17.87;36.41
73692;BME280;61996;49.910;35.562;2023-01-29T08:19:01;99231.56;;;17.89;36.42
73692;BME280;61996;49.910;35.562;2023-01-29T08:22:04;99234.22;;;17.79;36.58
73692;BME280;61996;49.910;35.562;2023-01-29T08:25:08;99230.56;;;17.80;36.51
73692;BME280;61996;49.910;35.562;2023-01-29T08:28:11;99234.50;;;17.76;36.50
73692;BME280;61996;49.910;35.562;2023-01-29T08:31:14;99224.84;;;17.75;36.65
73692;BME280;61996;49.910;35.562;2023-01-29T08:34:17;99224.81;;;17.85;36.10
73692;BME280;61996;49.910;35.562;2023-01-29T08:37:20;99224.84;;;17.94;36.10
73692;BME280;61996;49.910;35.562;2023-01-29T08:40:24;99228.44;;;18.03;35.83
73692;BME280;61996;49.910;35.562;2023-01-29T08:43:27;99229.41;;;18.12;35.75
73692;BME280;61996;49.910;35.562;2023-01-29T08:46:30;99228.94;;;18.26;35.59
73692;BME280;61996;49.910;35.562;2023-01-29T08:49:33;99225.41;;;18.35;35.33
73692;BME280;61996;49.910;35.562;2023-01-29T08:52:36;99226.91;;;18.47;35.21
73692;BME280;61996;49.910;35.562;2023-01-29T08:55:40;99220.16;;;18.53;35.16
73692;BME280;61996;49.910;35.562;2023-01-29T08:58:43;99210.03;;;18.56;35.23
73692;BME280;61996;49.910;35.562;2023-01-29T09:01:46;99208.22;;;18.67;34.83
73692;BME280;61996;49.910;35.562;2023-01-29T09:04:49;99212.56;;;18.68;34.88
73692;BME280;61996;49.910;35.562;2023-01-29T09:07:52;99209.47;;;18.72;34.93
73692;BME280;61996;49.910;35.562;2023-01-29T09:10:58;99205.06;;;18.81;34.86
73692;BME280;61996;49.910;35.562;2023-01-29T09:14:01;99199.88;;;18.79;34.79
73692;BME280;61996;49.910;35.562;2023-01-29T09:17:04;99200.72;;;18.80;34.97
73692;BME280;61996;49.910;35.562;2023-01-29T09:20:07;99199.81;;;18.89;34.65
73692;BME280;61996;49.910;35.562;2023-01-29T09:23:10;99197.84;;;18.91;34.69
73692;BME280;61996;49.910;35.562;2023-01-29T09:26:15;99184.38;;;18.93;34.62
73692;BME280;61996;49.910;35.562;2023-01-29T09:29:18;99194.56;;;18.97;34.55
73692;BME280;61996;49.910;35.562;2023-01-29T09:32:20;99191.38;;;18.94;34.62
73692;BME280;61996;49.910;35.562;2023-01-29T09:35:43;99194.72;;;18.96;34.58
73692;BME280;61996;49.910;35.562;2023-01-29T09:38:47;99193.28;;;19.01;34.50
73692;BME280;61996;49.910;35.562;2023-01-29T09:41:52;99192.63;;;18.99;34.63
73692;BME280;61996;49.910;35.562;2023-01-29T09:45:05;99184.97;;;19.04;34.51
73692;BME280;61996;49.910;35.562;2023-01-29T09:48:12;99176.63;;;18.99;34.55
73692;BME280;61996;49.910;35.562;2023-01-29T09:51:20;99173.81;;;19.01;34.64
73692;BME280;61996;49.910;35.562;2023-01-29T09:54:26;99193.38;;;19.09;34.56
73692;BME280;61996;49.910;35.562;2023-01-29T09:57:37;99182.88;;;19.08;34.62
73692;BME280;61996;49.910;35.562;2023-01-29T10:00:43;99173.72;;;19.10;34.48
73692;BME280;61996;49.910;35.562;2023-01-29T10:07:14;99169.09;;;19.12;34.58
73692;BME280;61996;49.910;35.562;2023-01-29T10:10:24;99165.97;;;19.17;34.47
73692;BME280;61996;49.910;35.562;2023-01-29T10:13:36;99160.09;;;19.13;34.70
73692;BME280;61996;49.910;35.562;2023-01-29T10:16:48;99163.84;;;19.21;34.56
73692;BME280;61996;49.910;35.562;2023-01-29T10:19:58;99162.31;;;19.18;34.48
73692;BME280;61996;49.910;35.562;2023-01-29T10:23:06;99162.69;;;19.23;34.57
73692;BME280;61996;49.910;35.562;2023-01-29T10:26:16;99163.84;;;19.21;34.49
73692;BME280;61996;49.910;35.562;2023-01-29T10:29:22;99159.75;;;19.26;34.50
73692;BME280;61996;49.910;35.562;2023-01-29T10:32:27;99152.84;;;19.24;34.53
73692;BME280;61996;49.910;35.562;2023-01-29T10:35:32;99157.19;;;19.25;34.55
73692;BME280;61996;49.910;35.562;2023-01-29T10:38:38;99161.91;;;19.31;34.36
73692;BME280;61996;49.910;35.562;2023-01-29T10:41:49;99156.91;;;19.28;34.42
73692;BME280;61996;49.910;35.562;2023-01-29T10:45:04;99159.09;;;19.32;34.42
73692;BME280;61996;49.910;35.562;2023-01-29T10:48:29;99160.25;;;19.30;34.54
73692;BME280;61996;49.910;35.562;2023-01-29T10:51:48;99144.25;;;19.30;34.38
73692;BME280;61996;49.910;35.562;2023-01-29T10:54:59;99147.31;;;19.35;34.48
73692;BME280;61996;49.910;35.562;2023-01-29T10:58:06;99153.75;;;19.32;34.50
73692;BME280;61996;49.910;35.562;2023-01-29T11:01:13;99151.09;;;19.32;34.53
73692;BME280;61996;49.910;35.562;2023-01-29T11:04:16;99143.81;;;19.34;34.56
73692;BME280;61996;49.910;35.562;2023-01-29T11:07:19;99134.44;;;19.30;34.56
73692;BME280;61996;49.910;35.562;2023-01-29T11:10:23;99133.97;;;19.35;34.52
73692;BME280;61996;49.910;35.562;2023-01-29T11:13:28;99135.31;;;19.39;34.34
73692;BME280;61996;49.910;35.562;2023-01-29T11:16:40;99128.38;;;19.46;34.52
73692;BME280;61996;49.910;35.562;2023-01-29T11:23:03;99137.91;;;19.49;35.03
73692;BME280;61996;49.910;35.562;2023-01-29T11:26:09;99138.53;;;19.42;35.13
73692;BME280;61996;49.910;35.562;2023-01-29T11:32:38;99138.44;;;19.52;35.00
73692;BME280;61996;49.910;35.562;2023-01-29T11:35:43;99128.91;;;19.50;35.17
73692;BME280;61996;49.910;35.562;2023-01-29T11:38:46;99130.09;;;19.47;35.31
73692;BME280;61996;49.910;35.562;2023-01-29T11:42:13;99143.53;;;19.45;35.32
73692;BME280;61996;49.910;35.562;2023-01-29T11:45:24;99149.09;;;19.52;34.97
73692;BME280;61996;49.910;35.562;2023-01-29T11:48:32;99145.31;;;19.55;34.95
73692;BME280;61996;49.910;35.562;2023-01-29T11:51:36;99147.13;;;19.54;34.90
73692;BME280;61996;49.910;35.562;2023-01-29T11:54:43;99147.81;;;19.56;34.86
73692;BME280;61996;49.910;35.562;2023-01-29T11:57:47;99141.94;;;19.70;34.69
73692;BME280;61996;49.910;35.562;2023-01-29T12:00:51;99147.44;;;19.69;34.70
73692;BME280;61996;49.910;35.562;2023-01-29T12:03:57;99150.63;;;19.73;34.83
73692;BME280;61996;49.910;35.562;2023-01-29T12:07:00;99144.16;;;19.75;34.85
73692;BME280;61996;49.910;35.562;2023-01-29T12:10:03;99139.94;;;19.98;35.19
73692;BME280;61996;49.910;35.562;2023-01-29T12:13:15;99141.09;;;19.70;35.71
73692;BME280;61996;49.910;35.562;2023-01-29T12:16:22;99147.56;;;19.67;36.36
73692;BME280;61996;49.910;35.562;2023-01-29T12:19:30;99148.78;;;19.73;35.88
73692;BME280;61996;49.910;35.562;2023-01-29T12:22:38;99156.28;;;19.69;36.34
73692;BME280;61996;49.910;35.562;2023-01-29T12:25:46;99157.13;;;19.96;35.55
73692;BME280;61996;49.910;35.562;2023-01-29T12:28:53;99149.38;;;19.85;35.77
73692;BME280;61996;49.910;35.562;2023-01-29T12:32:04;99151.59;;;19.89;35.73
73692;BME280;61996;49.910;35.562;2023-01-29T12:35:11;99152.56;;;19.88;35.74
73692;BME280;61996;49.910;35.562;2023-01-29T12:38:17;99148.09;;;19.89;35.80
73692;BME280;61996;49.910;35.562;2023-01-29T12:41:31;99148.38;;;19.86;35.92
73692;BME280;61996;49.910;35.562;2023-01-29T12:44:37;99159.00;;;19.78;36.00
73692;BME280;61996;49.910;35.562;2023-01-29T12:47:44;99150.41;;;19.92;35.56
73692;BME280;61996;49.910;35.562;2023-01-29T12:50:49;99148.78;;;19.73;35.80
73692;BME280;61996;49.910;35.562;2023-01-29T12:53:55;99148.72;;;19.65;35.93
73692;BME280;61996;49.910;35.562;2023-01-29T12:56:59;99154.41;;;19.62;35.81
73692;BME280;61996;49.910;35.562;2023-01-29T13:00:04;99161.69;;;19.60;35.86
73692;BME280;61996;49.910;35.562;2023-01-29T13:03:12;99157.38;;;19.41;36.37
73692;BME280;61996;49.910;35.562;2023-01-29T13:06:19;99154.00;;;19.39;36.17
73692;BME280;61996;49.910;35.562;2023-01-29T13:09:25;99159.56;;;19.28;35.83
73692;BME280;61996;49.910;35.562;2023-01-29T13:12:29;99163.47;;;19.33;35.98
73692;BME280;61996;49.910;35.562;2023-01-29T13:15:33;99148.97;;;19.18;36.34
73692;BME280;61996;49.910;35.562;2023-01-29T13:18:39;99164.69;;;19.21;35.82
73692;BME280;61996;49.910;35.562;2023-01-29T13:21:44;99163.78;;;19.12;36.42
73692;BME280;61996;49.910;35.562;2023-01-29T13:24:48;99158.72;;;19.09;36.54
73692;BME280;61996;49.910;35.562;2023-01-29T13:28:04;99162.47;;;19.16;35.99
73692;BME280;61996;49.910;35.562;2023-01-29T13:31:18;99159.78;;;19.16;36.42
73692;BME280;61996;49.910;35.562;2023-01-29T13:34:24;99159.94;;;19.33;35.81
73692;BME280;61996;49.910;35.562;2023-01-29T13:37:31;99155.91;;;19.29;35.74
73692;BME280;61996;49.910;35.562;2023-01-29T13:40:35;99159.31;;;19.39;35.67
73692;BME280;61996;49.910;35.562;2023-01-29T13:43:39;99164.94;;;19.54;35.42
73692;BME280;61996;49.910;35.562;2023-01-29T13:46:43;99167.59;;;19.54;35.44
73692;BME280;61996;49.910;35.562;2023-01-29T13:49:54;99157.53;;;19.83;34.84
73692;BME280;61996;49.910;35.562;2023-01-29T13:52:59;99156.78;;;19.73;35.15
73692;BME280;61996;49.910;35.562;2023-01-29T14:02:42;99166.84;;;19.79;34.93
73692;BME280;61996;49.910;35.562;2023-01-29T14:05:55;99164.34;;;19.78;34.93
73692;BME280;61996;49.910;35.562;2023-01-29T14:09:00;99163.66;;;19.76;34.96
73692;BME280;61996;49.910;35.562;2023-01-29T14:12:03;99168.00;;;19.77;34.92
73692;BME280;61996;49.910;35.562;2023-01-29T14:15:16;99165.56;;;19.83;34.88
73692;BME280;61996;49.910;35.562;2023-01-29T14:18:22;99161.44;;;19.89;34.74
73692;BME280;61996;49.910;35.562;2023-01-29T14:21:26;99168.72;;;19.87;34.73
73692;BME280;61996;49.910;35.562;2023-01-29T14:24:32;99170.41;;;19.88;34.84
73692;BME280;61996;49.910;35.562;2023-01-29T14:27:35;99174.06;;;19.87;34.80
73692;BME280;61996;49.910;35.562;2023-01-29T14:30:38;99176.34;;;19.82;34.84
73692;BME280;61996;49.910;35.562;2023-01-29T14:33:42;99182.06;;;19.87;34.82
73692;BME280;61996;49.910;35.562;2023-01-29T14:36:45;99180.56;;;19.84;34.86
73692;BME280;61996;49.910;35.562;2023-01-29T14:39:52;99179.41;;;19.87;34.82
73692;BME280;61996;49.910;35.562;2023-01-29T14:42:58;99175.59;;;19.89;34.75
73692;BME280;61996;49.910;35.562;2023-01-29T14:49:51;99182.59;;;19.90;35.01
73692;BME280;61996;49.910;35.562;2023-01-29T14:52:57;99184.94;;;19.93;35.02
73692;BME280;61996;49.910;35.562;2023-01-29T14:56:04;99184.56;;;19.88;35.12
73692;BME280;61996;49.910;35.562;2023-01-29T14:59:12;99186.41;;;19.88;35.14
73692;BME280;61996;49.910;35.562;2023-01-29T15:02:18;99183.41;;;19.83;35.02
73692;BME280;61996;49.910;35.562;2023-01-29T15:05:23;99195.25;;;19.88;35.17
73692;BME280;61996;49.910;35.562;2023-01-29T15:08:31;99197.47;;;19.93;35.15
73692;BME280;61996;49.910;35.562;2023-01-29T15:11:43;99191.06;;;19.86;35.06
73692;BME280;61996;49.910;35.562;2023-01-29T15:14:50;99195.78;;;19.92;35.06
73692;BME280;61996;49.910;35.562;2023-01-29T15:18:00;99193.28;;;19.90;34.96
73692;BME280;61996;49.910;35.562;2023-01-29T15:21:09;99190.63;;;19.90;35.01
73692;BME280;61996;49.910;35.562;2023-01-29T15:24:13;99195.63;;;19.93;35.00
73692;BME280;61996;49.910;35.562;2023-01-29T15:27:17;99194.50;;;19.96;34.97
73692;BME280;61996;49.910;35.562;2023-01-29T15:30:22;99200.81;;;19.95;34.91
73692;BME280;61996;49.910;35.562;2023-01-29T15:33:26;99199.84;;;19.96;34.82
73692;BME280;61996;49.910;35.562;2023-01-29T15:36:29;99208.13;;;19.93;34.85
73692;BME280;61996;49.910;35.562;2023-01-29T15:39:33;99212.84;;;19.99;34.94
73692;BME280;61996;49.910;35.562;2023-01-29T15:42:46;99212.06;;;20.07;34.84
73692;BME280;61996;49.910;35.562;2023-01-29T15:45:49;99207.84;;;19.96;34.94
73692;BME280;61996;49.910;35.562;2023-01-29T15:48:53;99212.19;;;19.97;34.90
73692;BME280;61996;49.910;35.562;2023-01-29T15:51:57;99218.88;;;20.01;34.82
73692;BME280;61996;49.910;35.562;2023-01-29T15:55:02;99212.84;;;19.99;34.79
73692;BME280;61996;49.910;35.562;2023-01-29T15:58:07;99214.56;;;20.08;34.98
73692;BME280;61996;49.910;35.562;2023-01-29T16:01:15;99204.91;;;20.07;34.70
73692;BME280;61996;49.910;35.562;2023-01-29T16:04:19;99207.41;;;20.09;34.83
73692;BME280;61996;49.910;35.562;2023-01-29T16:07:24;99208.72;;;20.05;35.86
73692;BME280;61996;49.910;35.562;2023-01-29T16:10:27;99205.69;;;19.99;35.89
73692;BME280;61996;49.910;35.562;2023-01-29T16:13:33;99204.00;;;19.98;36.10
73692;BME280;61996;49.910;35.562;2023-01-29T16:16:37;99201.72;;;20.04;36.27
73692;BME280;61996;49.910;35.562;2023-01-29T16:19:40;99200.19;;;20.01;35.95
73692;BME280;61996;49.910;35.562;2023-01-29T16:22:43;99205.00;;;19.97;35.47
73692;BME280;61996;49.910;35.562;2023-01-29T16:25:48;99200.88;;;20.03;35.46
73692;BME280;61996;49.910;35.562;2023-01-29T16:28:52;99211.19;;;19.98;35.64
73692;BME280;61996;49.910;35.562;2023-01-29T16:31:56;99208.72;;;20.05;35.52
73692;BME280;61996;49.910;35.562;2023-01-29T16:35:02;99206.06;;;20.05;35.37
73692;BME280;61996;49.910;35.562;2023-01-29T16:38:05;99202.34;;;19.97;35.62
73692;BME280;61996;49.910;35.562;2023-01-29T16:41:13;99215.00;;;20.21;35.04